Terminal Aerodrome Forecast
Issued by NWS Dodge City, KS

Home | Current Version | Previous Version | Text Only | Print | Product List | Glossary On
Versions: 1 2 3 4 5 6 7 8 9 10 11 12 13 14 15 16 17
000
FTUS43 KDDC 202320
TAFDDC
TAF
KDDC 202320Z 2100/2124 02010G16KT P6SM FEW100
     FM210500 10007KT P6SM BKN110
     FM211500 09013G23KT P6SM OVC015
     FM211700 08014G24KT P6SM OVC008
     FM211900 07013G21KT 1 1/2SM -SHRA OVC008
     FM212100 05012KT P6SM OVC008=

USA.gov is the U.S. government's official web portal to all federal, state and local government web resources and services.